createdAt,value
2023-04-04T00:00:15.518Z,1.80
2023-04-04T00:02:43.917Z,1.67
2023-04-04T00:05:13.984Z,2.00
2023-04-04T00:07:41.861Z,1.80
2023-04-04T00:10:10.500Z,1.80
2023-04-04T00:12:38.451Z,1.50
2023-04-04T00:15:07.708Z,1.30
2023-04-04T00:17:35.706Z,1.57
2023-04-04T00:20:04.284Z,1.87
2023-04-04T00:22:33.698Z,1.57
2023-04-04T00:25:01.639Z,1.37
2023-04-04T00:27:29.602Z,1.87
2023-04-04T00:29:57.483Z,1.70
2023-04-04T00:32:25.573Z,1.70
2023-04-04T00:34:54.197Z,1.57
2023-04-04T00:37:22.171Z,1.70
2023-04-04T00:39:51.388Z,1.70
2023-04-04T00:42:19.221Z,1.70
2023-04-04T00:44:47.109Z,1.83
2023-04-04T00:47:16.614Z,1.70
2023-04-04T00:49:46.680Z,1.80
2023-04-04T00:52:14.961Z,2.20
2023-04-04T00:54:42.809Z,1.90
2023-04-04T00:57:12.716Z,1.80
2023-04-04T00:59:40.710Z,2.00
2023-04-04T01:02:09.088Z,1.90
2023-04-04T01:04:37.397Z,1.53
2023-04-04T01:07:05.516Z,1.80
2023-04-04T01:09:33.817Z,1.83
2023-04-04T01:12:02.681Z,2.00
2023-04-04T01:14:32.152Z,1.80
2023-04-04T01:17:02.332Z,2.27
2023-04-04T01:19:34.417Z,2.13
2023-04-04T01:22:03.830Z,1.50
2023-04-04T01:24:35.164Z,1.90
2023-04-04T01:27:04.710Z,1.90
2023-04-04T01:29:32.572Z,2.07
2023-04-04T01:32:09.337Z,1.93
2023-04-04T01:34:43.971Z,1.53
2023-04-04T01:37:19.432Z,2.30
2023-04-04T01:39:50.652Z,1.97
2023-04-04T01:42:21.081Z,1.80
2023-04-04T01:44:49.467Z,1.93
2023-04-04T01:47:17.684Z,2.07
2023-04-04T01:49:45.576Z,1.43
2023-04-04T01:52:13.820Z,2.07
2023-04-04T01:54:41.706Z,2.03
2023-04-04T01:57:09.608Z,1.80
2023-04-04T01:59:38.838Z,2.00
2023-04-04T02:02:06.803Z,2.10
2023-04-04T02:04:34.914Z,1.80
2023-04-04T02:07:02.788Z,1.97
2023-04-04T02:09:30.625Z,2.07
2023-04-04T02:11:58.584Z,2.27
2023-04-04T02:14:26.429Z,2.23
2023-04-04T02:16:55.794Z,2.10
2023-04-04T02:19:24.310Z,2.00
2023-04-04T02:21:52.203Z,2.20
2023-04-04T02:24:20.059Z,2.10
2023-04-04T02:26:48.466Z,1.87
2023-04-04T02:29:16.813Z,2.00
2023-04-04T02:31:45.075Z,2.20
2023-04-04T02:34:14.803Z,2.27
2023-04-04T02:36:42.828Z,2.03
2023-04-04T02:39:10.739Z,2.30
2023-04-04T02:41:38.680Z,2.00
2023-04-04T02:44:08.766Z,2.43
2023-04-04T02:46:36.846Z,1.83
2023-04-04T02:49:04.867Z,2.50
2023-04-04T02:51:34.495Z,2.43
2023-04-04T02:54:03.065Z,2.30
2023-04-04T02:56:32.168Z,2.10
2023-04-04T02:59:00.376Z,2.43
2023-04-04T03:01:28.364Z,2.00
2023-04-04T03:03:56.315Z,2.10
2023-04-04T03:06:24.419Z,2.10
2023-04-04T03:08:53.706Z,2.00
2023-04-04T03:11:21.711Z,2.40
2023-04-04T03:13:51.169Z,2.40
2023-04-04T03:16:20.202Z,2.33
2023-04-04T03:18:48.314Z,2.17
2023-04-04T03:21:16.515Z,1.80
2023-04-04T03:23:44.396Z,2.30
2023-04-04T03:26:13.918Z,2.10
2023-04-04T03:28:41.760Z,2.27
2023-04-04T03:31:09.587Z,2.00
2023-04-04T03:33:38.053Z,2.03
2023-04-04T03:36:11.888Z,2.10
2023-04-04T03:38:39.912Z,2.03
2023-04-04T03:41:08.559Z,2.53
2023-04-04T03:43:37.857Z,2.20
2023-04-04T03:46:07.139Z,2.03
2023-04-04T03:48:35.624Z,2.07
2023-04-04T03:51:04.556Z,2.00
2023-04-04T03:53:32.599Z,2.17
2023-04-04T03:56:01.437Z,1.97
2023-04-04T03:58:30.756Z,2.30
2023-04-04T04:00:59.956Z,2.47
2023-04-04T04:03:28.151Z,2.30
2023-04-04T04:05:56.214Z,2.30
2023-04-04T04:08:25.175Z,2.70
2023-04-04T04:10:54.442Z,2.17
2023-04-04T04:13:22.887Z,2.37
2023-04-04T04:15:50.953Z,1.90
2023-04-04T04:18:20.145Z,2.63
2023-04-04T04:20:47.985Z,2.20
2023-04-04T04:23:16.028Z,2.03
2023-04-04T04:25:44.084Z,2.20
2023-04-04T04:28:12.422Z,2.60
2023-04-04T04:30:40.573Z,2.50
2023-04-04T04:33:08.748Z,2.77
2023-04-04T04:35:39.703Z,2.27
2023-04-04T04:38:07.643Z,2.17
2023-04-04T04:40:36.591Z,2.63
2023-04-04T04:43:04.674Z,2.53
2023-04-04T04:45:32.619Z,2.73
2023-04-04T04:48:00.479Z,2.57
2023-04-04T04:50:28.334Z,2.43
2023-04-04T04:52:57.529Z,3.00
2023-04-04T04:55:25.387Z,2.80
2023-04-04T04:57:53.338Z,3.23
2023-04-04T05:00:22.324Z,3.10
2023-04-04T05:02:51.167Z,3.60
2023-04-04T05:05:19.110Z,3.27
2023-04-04T05:07:47.750Z,3.10
2023-04-04T05:10:17.013Z,2.83
2023-04-04T05:12:45.618Z,2.70
2023-04-04T05:15:13.997Z,2.47
2023-04-04T05:17:41.842Z,2.83
2023-04-04T05:20:10.714Z,3.60
2023-04-04T05:22:43.171Z,3.00
2023-04-04T05:25:12.290Z,3.00
2023-04-04T05:27:42.759Z,2.83
2023-04-04T05:30:11.546Z,3.43
2023-04-04T05:32:39.431Z,2.90
2023-04-04T05:35:07.916Z,2.67
2023-04-04T05:37:40.179Z,3.00
2023-04-04T05:40:09.553Z,2.60
2023-04-04T05:42:37.392Z,3.27
2023-04-04T05:45:08.105Z,3.67
2023-04-04T05:47:36.168Z,2.97
2023-04-04T05:50:04.138Z,3.20
2023-04-04T05:52:31.944Z,3.10
2023-04-04T05:54:59.789Z,2.90
2023-04-04T05:57:27.668Z,3.60
2023-04-04T05:59:55.545Z,3.43
2023-04-04T06:02:24.753Z,3.20
2023-04-04T06:04:52.693Z,3.43
2023-04-04T06:07:20.669Z,3.23
2023-04-04T06:09:48.673Z,3.90
2023-04-04T06:12:16.561Z,5.10
2023-04-04T06:14:44.425Z,4.90
2023-04-04T06:17:12.255Z,4.60
2023-04-04T06:19:41.530Z,4.57
2023-04-04T06:22:09.518Z,4.00
2023-04-04T06:24:37.592Z,3.90
2023-04-04T06:27:06.502Z,3.67
2023-04-04T06:29:34.359Z,3.53
2023-04-04T06:32:02.227Z,3.40
2023-04-04T06:34:30.303Z,3.63
2023-04-04T06:36:59.530Z,4.13
2023-04-04T06:39:27.533Z,4.27
2023-04-04T06:41:55.487Z,3.80
2023-04-04T06:44:23.983Z,3.80
2023-04-04T06:46:52.597Z,3.70
2023-04-04T06:49:20.427Z,4.60
2023-04-04T06:51:50.622Z,4.93
2023-04-04T06:54:19.897Z,4.80
2023-04-04T06:56:48.014Z,4.50
2023-04-04T06:59:16.035Z,3.93
2023-04-04T07:01:44.140Z,4.23
2023-04-04T07:04:12.211Z,4.10
2023-04-04T07:06:40.058Z,3.20
2023-04-04T07:09:15.398Z,3.77
2023-04-04T07:11:51.553Z,3.47
2023-04-04T07:14:20.480Z,3.17
2023-04-04T07:16:48.862Z,3.80
2023-04-04T07:19:17.229Z,3.97
2023-04-04T07:21:45.234Z,3.87
2023-04-04T07:24:13.093Z,3.37
2023-04-04T07:26:40.921Z,3.57
2023-04-04T07:29:10.401Z,3.60
2023-04-04T07:31:38.275Z,3.67
2023-04-04T07:34:07.113Z,3.23
2023-04-04T07:36:34.973Z,4.10
2023-04-04T07:39:02.812Z,3.63
2023-04-04T07:41:30.693Z,3.70
2023-04-04T07:43:58.718Z,3.43
2023-04-04T07:46:28.584Z,4.47
2023-04-04T07:48:56.406Z,4.17
2023-04-04T07:51:29.393Z,3.37
2023-04-04T07:53:57.613Z,3.97
2023-04-04T07:56:26.114Z,3.60
2023-04-04T07:58:54.011Z,3.60
2023-04-04T08:01:21.891Z,4.33
2023-04-04T08:03:53.349Z,3.40
2023-04-04T08:06:21.530Z,3.70
2023-04-04T08:08:50.395Z,3.63
2023-04-04T08:11:18.512Z,3.73
2023-04-04T08:13:46.709Z,3.63
2023-04-04T08:16:14.987Z,3.37
2023-04-04T08:18:43.238Z,3.50
2023-04-04T08:21:12.357Z,3.70
2023-04-04T08:23:40.217Z,3.20
2023-04-04T08:26:08.351Z,3.50
2023-04-04T08:28:36.216Z,3.00
2023-04-04T08:31:04.878Z,3.03
2023-04-04T08:33:44.658Z,3.70
2023-04-04T08:36:16.580Z,2.73
2023-04-04T08:38:44.790Z,3.60
2023-04-04T08:41:13.863Z,3.10
2023-04-04T08:43:45.791Z,3.50
2023-04-04T08:46:15.460Z,2.93
2023-04-04T08:48:45.442Z,2.70
2023-04-04T08:51:16.783Z,2.80
2023-04-04T08:53:45.226Z,2.77
2023-04-04T08:56:13.379Z,2.47
2023-04-04T08:58:41.367Z,2.53
2023-04-04T09:01:09.513Z,2.60
2023-04-04T09:03:38.635Z,1.70
2023-04-04T09:06:07.262Z,1.83
2023-04-04T09:08:37.191Z,2.07
2023-04-04T09:11:05.466Z,2.23
2023-04-04T09:13:33.593Z,2.03
2023-04-04T09:16:02.003Z,2.07
2023-04-04T09:18:29.865Z,2.00
2023-04-04T09:20:57.779Z,2.10
2023-04-04T09:23:25.709Z,2.07
2023-04-04T09:28:27.351Z,2.43
2023-04-04T09:30:55.536Z,2.20
2023-04-04T09:33:25.007Z,2.07
2023-04-04T09:35:55.927Z,2.33
2023-04-04T09:38:25.125Z,2.20
2023-04-04T09:40:55.937Z,2.23
2023-04-04T09:43:25.255Z,2.23
2023-04-04T09:45:55.551Z,2.30
2023-04-04T09:48:32.451Z,2.00
2023-04-04T09:51:00.551Z,1.70
2023-04-04T09:53:28.689Z,1.70
2023-04-04T09:55:58.756Z,2.43
2023-04-04T09:58:28.118Z,1.93
2023-04-04T10:00:58.482Z,2.63
2023-04-04T10:03:27.685Z,2.37
2023-04-04T10:06:00.933Z,2.00
2023-04-04T10:08:30.305Z,2.20
2023-04-04T10:11:09.797Z,2.10
2023-04-04T10:13:43.873Z,2.20
2023-04-04T10:16:12.599Z,1.97
2023-04-04T10:18:40.764Z,2.63
2023-04-04T10:23:43.797Z,2.20
2023-04-04T10:26:13.586Z,2.17
2023-04-04T10:28:42.661Z,1.90
2023-04-04T10:31:17.494Z,2.07
2023-04-04T10:33:51.467Z,2.03
2023-04-04T10:36:23.725Z,2.07
2023-04-04T10:39:00.229Z,2.17
2023-04-04T10:41:32.611Z,2.37
2023-04-04T10:44:05.371Z,2.03
2023-04-04T10:46:36.321Z,2.17
2023-04-04T10:49:04.693Z,2.57
2023-04-04T10:51:37.114Z,3.03
2023-04-04T10:54:10.759Z,2.20
2023-04-04T10:56:41.071Z,1.97
2023-04-04T10:59:14.480Z,2.80
2023-04-04T11:01:51.136Z,2.40
2023-04-04T11:04:21.469Z,2.30
2023-04-04T11:07:12.474Z,2.87
2023-04-04T11:09:54.760Z,2.60
2023-04-04T11:12:28.992Z,1.90
2023-04-04T11:14:58.104Z,2.63
2023-04-04T11:17:43.058Z,2.60
2023-04-04T11:20:11.601Z,2.47
2023-04-04T11:22:42.643Z,2.20
2023-04-04T11:25:34.130Z,2.15
2023-04-04T11:28:08.675Z,1.90
2023-04-04T11:30:44.692Z,2.10
2023-04-04T11:33:15.125Z,2.30
2023-04-04T11:35:48.656Z,2.20
2023-04-04T11:38:17.207Z,2.42
2023-04-04T11:40:54.677Z,2.20
2023-04-04T11:43:24.806Z,2.42
2023-04-04T11:45:52.776Z,2.27
2023-04-04T11:48:21.750Z,1.80
2023-04-04T11:50:53.278Z,2.22
2023-04-04T11:53:29.262Z,2.55
2023-04-04T11:55:57.173Z,2.45
2023-04-04T11:58:28.121Z,2.90
2023-04-04T12:00:56.749Z,2.58
2023-04-04T12:03:25.373Z,2.20
2023-04-04T12:05:53.484Z,2.50
2023-04-04T12:08:23.836Z,2.22
2023-04-04T12:10:52.985Z,2.17
2023-04-04T12:13:20.854Z,2.50
2023-04-04T12:15:51.129Z,2.58
2023-04-04T12:18:23.050Z,2.55
2023-04-04T12:20:52.720Z,2.45
2023-04-04T12:23:20.822Z,2.58
2023-04-04T12:25:53.551Z,2.50
2023-04-04T12:28:21.814Z,2.40
2023-04-04T12:30:51.298Z,2.90
2023-04-04T12:33:19.238Z,2.47
2023-04-04T12:35:53.468Z,2.22
2023-04-04T12:38:21.427Z,2.55
2023-04-04T12:40:52.145Z,2.28
2023-04-04T12:43:20.999Z,2.60
2023-04-04T12:45:51.736Z,2.65
2023-04-04T12:48:21.281Z,2.30
2023-04-04T12:50:54.350Z,2.60
2023-04-04T12:55:55.625Z,2.67
2023-04-04T12:58:25.941Z,2.38
2023-04-04T13:00:57.042Z,2.30
2023-04-04T13:03:26.037Z,2.45
2023-04-04T13:05:54.099Z,2.50
2023-04-04T13:08:22.479Z,2.80
2023-04-04T13:11:02.796Z,2.65
2023-04-04T13:13:38.704Z,2.65
2023-04-04T13:16:09.580Z,2.65
2023-04-04T13:18:39.248Z,2.13
2023-04-04T13:21:08.386Z,2.42
2023-04-04T13:23:37.590Z,2.55
2023-04-04T13:26:05.860Z,2.90
2023-04-04T13:28:33.783Z,2.75
2023-04-04T13:31:03.715Z,2.55
2023-04-04T13:33:33.173Z,2.53
2023-04-04T13:36:01.925Z,2.90
2023-04-04T13:38:30.413Z,3.38
2023-04-04T13:40:59.811Z,2.45
2023-04-04T13:43:28.350Z,2.75
2023-04-04T13:45:56.354Z,2.67
2023-04-04T13:48:24.411Z,2.60
2023-04-04T13:50:55.341Z,3.17
2023-04-04T13:53:23.384Z,2.70
2023-04-04T13:56:16.196Z,2.92
2023-04-04T13:58:39.222Z,3.03
2023-04-04T14:01:07.245Z,2.97
2023-04-04T14:03:35.330Z,3.00
2023-04-04T14:06:10.328Z,2.67
2023-04-04T14:08:39.134Z,3.08
2023-04-04T14:11:07.130Z,2.85
2023-04-04T14:13:36.189Z,2.60
2023-04-04T14:16:04.223Z,2.85
2023-04-04T14:18:32.126Z,2.72
2023-04-04T14:21:00.097Z,2.92
2023-04-04T14:23:30.619Z,2.80
2023-04-04T14:25:58.462Z,2.78
2023-04-04T14:28:26.603Z,2.88
2023-04-04T14:30:54.585Z,2.90
2023-04-04T14:33:22.417Z,3.20
2023-04-04T14:35:50.961Z,2.72
2023-04-04T14:38:18.834Z,2.53
2023-04-04T14:40:48.891Z,3.05
2023-04-04T14:43:17.003Z,3.00
2023-04-04T14:45:45.156Z,2.72
2023-04-04T14:48:13.012Z,3.10
2023-04-04T14:50:42.741Z,2.80
2023-04-04T14:53:10.740Z,2.90
2023-04-04T14:55:38.744Z,3.20
2023-04-04T14:58:08.273Z,3.05
2023-04-04T15:00:36.259Z,2.83
2023-04-04T15:03:07.169Z,3.08
2023-04-04T15:05:35.336Z,3.08
2023-04-04T15:08:03.219Z,2.90
2023-04-04T15:10:31.072Z,2.95
2023-04-04T15:12:58.922Z,2.80
2023-04-04T15:15:28.888Z,2.97
2023-04-04T15:17:56.848Z,3.13
2023-04-04T15:20:24.729Z,2.90
2023-04-04T15:22:52.745Z,2.70
2023-04-04T15:25:20.637Z,2.80
2023-04-04T15:27:48.720Z,2.67
2023-04-04T15:30:16.825Z,2.78
2023-04-04T15:32:46.206Z,3.08
2023-04-04T15:35:18.716Z,2.75
2023-04-04T15:37:47.286Z,3.38
2023-04-04T15:40:15.822Z,2.78
2023-04-04T15:42:43.769Z,2.70
2023-04-04T15:45:13.475Z,2.78
2023-04-04T15:47:41.472Z,2.53
2023-04-04T15:50:11.851Z,2.83
2023-04-04T15:52:39.804Z,2.85
2023-04-04T15:55:12.649Z,2.92
2023-04-04T15:57:40.518Z,2.75
2023-04-04T16:00:11.477Z,2.70
2023-04-04T16:02:39.590Z,2.88
2023-04-04T16:05:08.535Z,2.88
2023-04-04T16:07:37.838Z,2.80
2023-04-04T16:10:06.745Z,2.55
2023-04-04T16:12:34.630Z,3.30
2023-04-04T16:15:02.917Z,2.75
2023-04-04T16:17:32.136Z,2.65
2023-04-04T16:20:01.125Z,3.10
2023-04-04T16:22:28.942Z,3.13
2023-04-04T16:24:58.210Z,2.85
2023-04-04T16:27:26.174Z,2.97
2023-04-04T16:29:53.981Z,3.22
2023-04-04T16:32:21.799Z,3.35
2023-04-04T16:34:49.837Z,2.92
2023-04-04T16:37:17.655Z,3.08
2023-04-04T16:39:47.297Z,2.83
2023-04-04T16:42:19.492Z,2.67
2023-04-04T16:44:47.846Z,3.30
2023-04-04T16:47:15.900Z,3.10
2023-04-04T16:49:43.832Z,3.30
2023-04-04T16:52:11.829Z,3.60
2023-04-04T16:54:39.634Z,3.67
2023-04-04T16:57:07.468Z,3.22
2023-04-04T16:59:37.245Z,3.38
2023-04-04T17:02:05.535Z,3.47
2023-04-04T17:04:33.456Z,3.33
2023-04-04T17:07:01.671Z,3.85
2023-04-04T17:09:29.623Z,3.55
2023-04-04T17:11:57.767Z,3.95
2023-04-04T17:14:26.130Z,3.70
2023-04-04T17:16:55.757Z,3.55
2023-04-04T17:19:23.717Z,3.38
2023-04-04T17:21:51.754Z,3.50
2023-04-04T17:24:19.716Z,4.18
2023-04-04T17:26:48.181Z,4.05
2023-04-04T17:29:16.244Z,3.50
2023-04-04T17:31:48.693Z,4.05
2023-04-04T17:34:17.948Z,4.35
2023-04-04T17:36:45.994Z,3.72
2023-04-04T17:39:13.825Z,3.72
2023-04-04T17:41:41.804Z,3.60
2023-04-04T17:44:10.477Z,3.83
2023-04-04T17:46:38.408Z,4.13
2023-04-04T17:49:06.905Z,4.00
2023-04-04T17:51:36.202Z,4.20
2023-04-04T17:54:04.131Z,4.50
2023-04-04T17:56:32.433Z,4.07
2023-04-04T17:59:00.980Z,4.30
2023-04-04T18:01:29.477Z,4.07
2023-04-04T18:03:57.972Z,4.10
2023-04-04T18:06:27.180Z,4.05
2023-04-04T18:08:56.378Z,3.63
2023-04-04T18:11:24.537Z,3.83
2023-04-04T18:13:52.444Z,4.03
2023-04-04T18:16:20.374Z,4.10
2023-04-04T18:18:48.641Z,3.80
2023-04-04T18:21:16.527Z,4.17
2023-04-04T18:23:44.734Z,3.60
2023-04-04T18:26:14.136Z,4.00
2023-04-04T18:28:42.128Z,4.03
2023-04-04T18:31:10.244Z,4.70
2023-04-04T18:33:38.139Z,4.70
2023-04-04T20:11:46.235Z,4.33
2023-04-04T20:14:21.936Z,4.17
2023-04-04T20:16:51.321Z,4.60
2023-04-04T20:19:21.698Z,5.20
2023-04-04T20:21:50.589Z,4.63
2023-04-04T20:24:19.374Z,4.67
2023-04-04T20:26:55.469Z,4.83
2023-04-04T20:29:27.186Z,5.57
2023-04-04T20:31:56.719Z,5.57
2023-04-04T20:34:41.645Z,5.10
2023-04-04T20:37:12.367Z,5.30
2023-04-04T20:39:43.806Z,5.17
2023-04-04T20:42:33.882Z,6.33
2023-04-04T20:45:14.134Z,5.20
2023-04-04T20:47:44.464Z,5.70
2023-04-04T20:50:46.273Z,6.07
2023-04-04T20:53:19.310Z,4.67
2023-04-04T20:55:48.323Z,5.23
2023-04-04T20:58:28.586Z,4.87
2023-04-04T21:00:59.094Z,5.00
2023-04-04T21:03:37.515Z,5.40
2023-04-04T21:06:16.058Z,5.20
2023-04-04T21:08:49.094Z,5.70
2023-04-04T21:11:24.262Z,5.87
2023-04-04T21:13:52.381Z,5.33
2023-04-04T21:16:25.027Z,4.97
2023-04-04T21:18:57.912Z,5.30
2023-04-04T21:21:26.506Z,5.57
2023-04-04T21:23:57.024Z,5.50
2023-04-04T21:26:31.754Z,6.70
2023-04-04T21:29:01.233Z,5.67
2023-04-04T21:31:36.914Z,6.10
2023-04-04T21:34:13.750Z,6.47
2023-04-04T21:36:42.501Z,6.47
2023-04-04T21:39:14.387Z,6.03
2023-04-04T21:41:44.192Z,6.03
2023-04-04T21:44:12.309Z,5.23
2023-04-04T21:46:43.049Z,5.03
2023-04-04T21:49:12.411Z,4.70
2023-04-04T21:51:40.265Z,5.30
2023-04-04T21:54:08.196Z,5.13
2023-04-04T21:56:37.093Z,5.27
2023-04-04T21:59:08.013Z,4.97
2023-04-04T22:01:36.608Z,4.93
2023-04-04T22:04:05.861Z,5.47
2023-04-04T22:06:33.851Z,4.80
2023-04-04T22:09:03.902Z,5.63
2023-04-04T22:11:34.419Z,5.43
2023-04-04T22:14:07.222Z,5.20
2023-04-04T22:16:39.883Z,4.90
2023-04-04T22:19:10.890Z,4.63
2023-04-04T22:21:39.241Z,5.03
2023-04-04T22:24:09.893Z,5.00
2023-04-04T22:26:41.902Z,5.20
2023-04-04T22:29:09.868Z,4.50
2023-04-04T22:31:38.441Z,4.50
2023-04-04T22:34:06.596Z,4.70
2023-04-04T22:36:39.008Z,4.40
2023-04-04T22:39:06.825Z,4.60
2023-04-04T22:41:34.612Z,4.57
2023-04-04T22:44:02.559Z,4.70
2023-04-04T22:46:32.097Z,3.90
2023-04-04T22:49:06.491Z,4.17
2023-04-04T22:51:43.685Z,4.70
2023-04-04T22:54:14.094Z,4.40
2023-04-04T22:56:42.083Z,4.33
2023-04-04T22:59:10.019Z,4.40
2023-04-04T23:01:38.095Z,3.90
2023-04-04T23:04:06.579Z,3.67
2023-04-04T23:06:36.201Z,4.77
2023-04-04T23:09:04.096Z,4.47
2023-04-04T23:11:32.159Z,4.57
2023-04-04T23:14:00.378Z,4.90
2023-04-04T23:16:28.898Z,4.00
2023-04-04T23:18:57.156Z,3.83
2023-04-04T23:21:25.186Z,3.70
2023-04-04T23:23:54.393Z,3.70
2023-04-04T23:26:22.174Z,4.13
2023-04-04T23:28:50.909Z,3.93
2023-04-04T23:31:18.773Z,4.00
2023-04-04T23:33:46.804Z,3.73
2023-04-04T23:36:15.691Z,4.33
2023-04-04T23:38:43.984Z,4.07
2023-04-04T23:41:13.972Z,3.80
2023-04-04T23:43:43.201Z,5.03
2023-04-04T23:46:14.531Z,4.33
2023-04-04T23:48:42.511Z,4.70
2023-04-04T23:51:10.847Z,4.63
2023-04-04T23:53:38.998Z,4.57
2023-04-04T23:56:07.527Z,4.60
2023-04-04T23:58:39.001Z,4.63
